createdAt,value
2022-10-04T00:04:15.844Z,1
2022-10-04T00:14:15.772Z,6
2022-10-04T00:24:15.692Z,11
2022-10-04T00:34:15.737Z,1
2022-10-04T00:44:15.532Z,1
2022-10-04T00:54:15.480Z,1
2022-10-04T01:04:15.413Z,1
2022-10-04T01:14:15.325Z,1
2022-10-04T01:24:15.239Z,1
2022-10-04T01:34:15.179Z,1
2022-10-04T01:44:15.092Z,1
2022-10-04T01:54:15.027Z,1
2022-10-04T02:04:19.784Z,1
2022-10-04T02:14:15.039Z,1
2022-10-04T02:24:14.936Z,1
2022-10-04T02:34:14.733Z,1
2022-10-04T02:44:14.651Z,1
2022-10-04T02:54:14.596Z,1
2022-10-04T03:14:14.442Z,1
2022-10-04T03:24:14.372Z,1
2022-10-04T03:34:14.293Z,1
2022-10-04T03:44:14.219Z,1
2022-10-04T03:54:14.150Z,1
2022-10-04T04:04:14.080Z,1
2022-10-04T04:14:14.004Z,1
2022-10-04T04:24:13.924Z,2
2022-10-04T04:34:13.872Z,6
2022-10-04T04:44:13.808Z,11
2022-10-04T04:54:13.699Z,11
2022-10-04T05:04:13.628Z,15
2022-10-04T05:14:13.585Z,27
2022-10-04T05:24:13.491Z,34
2022-10-04T05:34:13.554Z,39
2022-10-04T05:44:13.350Z,43
2022-10-04T05:54:13.279Z,42
2022-10-04T06:04:13.197Z,45
2022-10-04T06:14:13.146Z,53
2022-10-04T06:24:13.078Z,55
2022-10-04T06:34:13.007Z,61
2022-10-04T06:44:12.918Z,69
2022-10-04T06:54:12.858Z,77
2022-10-04T07:04:12.779Z,90
2022-10-04T07:14:12.692Z,99
2022-10-04T07:24:12.648Z,99
2022-10-04T07:34:12.715Z,99
2022-10-04T07:44:12.499Z,99
2022-10-04T07:54:12.440Z,93
2022-10-04T08:04:12.366Z,94
2022-10-04T08:14:12.295Z,43
2022-10-04T08:24:12.218Z,38
2022-10-04T08:34:12.149Z,41
2022-10-04T08:44:12.099Z,57
2022-10-04T08:54:12.012Z,63
2022-10-04T09:04:11.922Z,52
2022-10-04T09:14:11.850Z,41
2022-10-04T09:24:11.766Z,39
2022-10-04T09:34:11.696Z,39
2022-10-04T09:44:11.785Z,40
2022-10-04T09:54:11.555Z,48
2022-10-04T10:04:11.508Z,49
2022-10-04T10:14:11.472Z,42
2022-10-04T10:24:11.356Z,32
2022-10-04T10:34:11.286Z,36
2022-10-04T10:44:11.202Z,34
2022-10-04T10:54:11.118Z,28
2022-10-04T11:04:11.137Z,32
2022-10-04T11:14:11.004Z,34
2022-10-04T11:24:10.937Z,32
2022-10-04T11:34:15.711Z,27
2022-10-04T11:44:10.800Z,35
2022-10-04T11:54:10.703Z,49
2022-10-04T12:04:10.824Z,61
2022-10-04T12:14:10.576Z,65
2022-10-04T12:24:10.515Z,50
2022-10-04T12:34:10.445Z,53
2022-10-04T12:44:10.369Z,55
2022-10-04T12:54:10.302Z,43
2022-10-04T13:04:10.229Z,42
2022-10-04T13:14:10.137Z,46
2022-10-04T13:24:10.087Z,45
2022-10-04T13:34:10.029Z,49
2022-10-04T13:44:09.927Z,47
2022-10-04T13:54:09.858Z,51
2022-10-04T14:04:09.779Z,61
2022-10-04T14:14:09.744Z,52
2022-10-04T14:24:09.644Z,45
2022-10-04T14:34:09.716Z,37
2022-10-04T14:44:09.520Z,45
2022-10-04T14:54:09.428Z,43
2022-10-04T15:04:09.435Z,41
2022-10-04T15:14:09.303Z,51
2022-10-04T15:24:09.321Z,49
2022-10-04T15:34:09.169Z,55
2022-10-04T15:44:09.083Z,53
2022-10-04T15:54:09.007Z,56
2022-10-04T16:04:10.242Z,58
2022-10-04T16:14:08.855Z,60
2022-10-04T16:24:08.774Z,63
2022-10-04T16:34:08.714Z,60
2022-10-04T16:44:08.656Z,64
2022-10-04T16:54:08.573Z,39
2022-10-04T17:04:08.595Z,41
2022-10-04T17:14:08.431Z,44
2022-10-04T17:24:08.360Z,47
2022-10-04T17:34:08.319Z,53
2022-10-04T17:44:08.234Z,60
2022-10-04T17:54:08.148Z,48
2022-10-04T18:04:08.081Z,48
2022-10-04T18:14:08.036Z,45
2022-10-04T18:24:07.960Z,49
2022-10-04T18:34:07.890Z,51
2022-10-04T18:44:07.803Z,56
2022-10-04T18:54:07.738Z,49
2022-10-04T19:04:07.672Z,43
2022-10-04T19:14:08.668Z,36
2022-10-04T19:24:07.536Z,29
2022-10-04T19:34:07.455Z,27
2022-10-04T19:44:07.380Z,30
2022-10-04T19:54:09.909Z,30
2022-10-04T20:04:07.242Z,27
2022-10-04T20:14:07.218Z,35
2022-10-04T20:24:07.108Z,36
2022-10-04T20:34:07.036Z,45
2022-10-04T20:44:06.980Z,46
2022-10-04T20:54:07.033Z,49
2022-10-04T21:04:06.808Z,60
2022-10-04T21:14:06.728Z,54
2022-10-04T21:24:06.687Z,52
2022-10-04T21:34:06.604Z,75
2022-10-04T21:44:06.547Z,62
2022-10-04T21:54:06.472Z,61
2022-10-04T22:04:06.402Z,68
2022-10-04T22:14:06.328Z,66
2022-10-04T22:24:06.234Z,79
2022-10-04T22:34:06.181Z,99
2022-10-04T22:44:06.106Z,69
2022-10-04T22:54:06.030Z,66
2022-10-04T23:04:05.955Z,57
2022-10-04T23:14:05.887Z,66
2022-10-04T23:24:05.787Z,72
2022-10-04T23:34:05.740Z,95
2022-10-04T23:44:05.674Z,91
2022-10-04T23:54:05.610Z,67
